sensor_id;sensor_type;location;lat;lon;timestamp;pressure;altitude;pressure_sealevel;temperature;humidity
13387;BME280;6763;48.524;9.044;2023-02-04T00:01:16;99059.28;;;11.23;57.83
13387;BME280;6763;48.524;9.044;2023-02-04T00:03:42;99059.25;;;11.25;57.76
13387;BME280;6763;48.524;9.044;2023-02-04T00:06:07;99053.22;;;11.24;57.59
13387;BME280;6763;48.524;9.044;2023-02-04T00:08:32;99051.50;;;11.23;57.43
13387;BME280;6763;48.524;9.044;2023-02-04T00:10:58;99051.50;;;11.23;58.03
13387;BME280;6763;48.524;9.044;2023-02-04T00:13:23;99050.63;;;11.23;57.84
13387;BME280;6763;48.524;9.044;2023-02-04T00:15:48;99053.22;;;11.23;58.08
13387;BME280;6763;48.524;9.044;2023-02-04T00:18:14;99066.19;;;11.23;58.30
13387;BME280;6763;48.524;9.044;2023-02-04T00:20:39;99063.56;;;11.24;58.20
13387;BME280;6763;48.524;9.044;2023-02-04T00:23:04;99074.78;;;11.26;58.07
13387;BME280;6763;48.524;9.044;2023-02-04T00:25:30;99070.50;;;11.25;58.32
13387;BME280;6763;48.524;9.044;2023-02-04T00:27:55;99074.81;;;11.25;58.27
13387;BME280;6763;48.524;9.044;2023-02-04T00:30:20;99082.56;;;11.26;58.46
13387;BME280;6763;48.524;9.044;2023-02-04T00:32:46;99081.72;;;11.26;58.27
13387;BME280;6763;48.524;9.044;2023-02-04T00:35:12;99069.63;;;11.25;58.42
13387;BME280;6763;48.524;9.044;2023-02-04T00:37:37;99059.28;;;11.23;58.82
13387;BME280;6763;48.524;9.044;2023-02-04T00:40:03;99056.66;;;11.18;59.03
13387;BME280;6763;48.524;9.044;2023-02-04T00:42:28;99042.84;;;11.18;59.11
13387;BME280;6763;48.524;9.044;2023-02-04T00:44:53;99038.53;;;11.15;58.99
13387;BME280;6763;48.524;9.044;2023-02-04T00:47:19;99049.78;;;11.14;59.16
13387;BME280;6763;48.524;9.044;2023-02-04T00:49:44;99047.19;;;11.11;58.96
13387;BME280;6763;48.524;9.044;2023-02-04T00:52:09;99048.03;;;11.12;59.27
13387;BME280;6763;48.524;9.044;2023-02-04T00:54:35;99054.97;;;11.10;59.27
13387;BME280;6763;48.524;9.044;2023-02-04T00:57:00;99045.44;;;11.10;59.24
13387;BME280;6763;48.524;9.044;2023-02-04T00:59:25;99051.50;;;11.11;59.53
13387;BME280;6763;48.524;9.044;2023-02-04T01:01:51;99047.16;;;11.13;59.83
13387;BME280;6763;48.524;9.044;2023-02-04T01:04:16;99056.66;;;11.15;59.68
13387;BME280;6763;48.524;9.044;2023-02-04T01:06:42;99053.22;;;11.19;60.08
13387;BME280;6763;48.524;9.044;2023-02-04T01:09:07;99054.94;;;11.23;59.92
13387;BME280;6763;48.524;9.044;2023-02-04T01:11:32;99059.25;;;11.29;60.21
13387;BME280;6763;48.524;9.044;2023-02-04T01:13:58;99056.69;;;11.31;60.02
13387;BME280;6763;48.524;9.044;2023-02-04T01:16:24;99052.31;;;11.34;60.38
13387;BME280;6763;48.524;9.044;2023-02-04T01:18:49;99053.19;;;11.38;60.17
13387;BME280;6763;48.524;9.044;2023-02-04T01:21:15;99057.50;;;11.42;60.04
13387;BME280;6763;48.524;9.044;2023-02-04T01:23:40;99073.91;;;11.45;59.88
13387;BME280;6763;48.524;9.044;2023-02-04T01:26:06;99076.50;;;11.50;60.11
13387;BME280;6763;48.524;9.044;2023-02-04T01:28:31;99081.69;;;11.53;59.64
13387;BME280;6763;48.524;9.044;2023-02-04T01:30:56;99078.25;;;11.54;60.02
13387;BME280;6763;48.524;9.044;2023-02-04T01:33:22;99071.31;;;11.56;59.77
13387;BME280;6763;48.524;9.044;2023-02-04T01:35:47;99066.13;;;11.57;59.72
13387;BME280;6763;48.524;9.044;2023-02-04T01:38:13;99066.13;;;11.57;59.28
13387;BME280;6763;48.524;9.044;2023-02-04T01:40:38;99065.25;;;11.58;59.32
13387;BME280;6763;48.524;9.044;2023-02-04T01:43:05;99065.25;;;11.55;59.19
13387;BME280;6763;48.524;9.044;2023-02-04T01:45:30;99064.38;;;11.55;59.92
13387;BME280;6763;48.524;9.044;2023-02-04T01:47:59;99064.41;;;11.53;59.25
13387;BME280;6763;48.524;9.044;2023-02-04T01:50:24;99067.84;;;11.52;59.24
13387;BME280;6763;48.524;9.044;2023-02-04T01:52:50;99076.50;;;11.50;59.21
13387;BME280;6763;48.524;9.044;2023-02-04T01:55:17;99073.06;;;11.51;59.83
13387;BME280;6763;48.524;9.044;2023-02-04T01:57:43;99068.72;;;11.50;59.70
13387;BME280;6763;48.524;9.044;2023-02-04T02:00:15;99078.25;;;11.51;59.64
13387;BME280;6763;48.524;9.044;2023-02-04T02:02:50;99079.09;;;11.50;59.66
13387;BME280;6763;48.524;9.044;2023-02-04T02:05:18;99069.59;;;11.50;59.71
13387;BME280;6763;48.524;9.044;2023-02-04T02:07:48;99073.03;;;11.49;59.80
13387;BME280;6763;48.524;9.044;2023-02-04T02:10:15;99079.09;;;11.51;59.62
13387;BME280;6763;48.524;9.044;2023-02-04T02:12:41;99085.16;;;11.53;59.91
13387;BME280;6763;48.524;9.044;2023-02-04T02:15:08;99076.50;;;11.56;59.40
13387;BME280;6763;48.524;9.044;2023-02-04T02:17:34;99074.75;;;11.58;59.67
13387;BME280;6763;48.524;9.044;2023-02-04T02:19:59;99076.47;;;11.60;59.67
13387;BME280;6763;48.524;9.044;2023-02-04T02:22:28;99074.75;;;11.61;59.49
13387;BME280;6763;48.524;9.044;2023-02-04T02:24:54;99078.22;;;11.61;59.44
13387;BME280;6763;48.524;9.044;2023-02-04T02:27:21;99075.63;;;11.61;59.79
13387;BME280;6763;48.524;9.044;2023-02-04T02:29:46;99067.81;;;11.63;59.48
13387;BME280;6763;48.524;9.044;2023-02-04T02:32:13;99068.69;;;11.63;59.53
13387;BME280;6763;48.524;9.044;2023-02-04T02:34:40;99076.47;;;11.65;59.48
13387;BME280;6763;48.524;9.044;2023-02-04T02:37:06;99075.59;;;11.67;59.37
13387;BME280;6763;48.524;9.044;2023-02-04T02:39:36;99075.63;;;11.70;59.38
13387;BME280;6763;48.524;9.044;2023-02-04T02:42:03;99077.34;;;11.73;59.43
13387;BME280;6763;48.524;9.044;2023-02-04T02:44:29;99077.34;;;11.73;59.40
13387;BME280;6763;48.524;9.044;2023-02-04T02:46:54;99085.13;;;11.74;59.31
13387;BME280;6763;48.524;9.044;2023-02-04T02:49:20;99085.13;;;11.76;59.01
13387;BME280;6763;48.524;9.044;2023-02-04T02:51:47;99082.50;;;11.80;58.83
13387;BME280;6763;48.524;9.044;2023-02-04T02:54:21;99076.47;;;11.81;58.92
13387;BME280;6763;48.524;9.044;2023-02-04T02:56:48;99092.88;;;11.83;59.61
13387;BME280;6763;48.524;9.044;2023-02-04T02:59:14;99111.06;;;11.85;59.15
13387;BME280;6763;48.524;9.044;2023-02-04T03:01:40;99111.91;;;11.84;59.58
13387;BME280;6763;48.524;9.044;2023-02-04T03:04:06;99113.66;;;11.82;59.56
13387;BME280;6763;48.524;9.044;2023-02-04T03:06:32;99110.19;;;11.85;59.61
13387;BME280;6763;48.524;9.044;2023-02-04T03:08:58;99105.00;;;11.85;59.20
13387;BME280;6763;48.524;9.044;2023-02-04T03:11:23;99101.53;;;11.87;59.55
13387;BME280;6763;48.524;9.044;2023-02-04T03:13:51;99104.97;;;11.91;59.37
13387;BME280;6763;48.524;9.044;2023-02-04T03:16:17;99113.63;;;11.93;59.65
13387;BME280;6763;48.524;9.044;2023-02-04T03:18:42;99112.75;;;11.94;58.94
13387;BME280;6763;48.524;9.044;2023-02-04T03:21:08;99118.81;;;11.96;59.04
13387;BME280;6763;48.524;9.044;2023-02-04T03:23:34;99118.81;;;11.96;59.08
13387;BME280;6763;48.524;9.044;2023-02-04T03:26:00;99124.84;;;11.96;59.35
13387;BME280;6763;48.524;9.044;2023-02-04T03:28:26;99132.66;;;11.95;59.11
13387;BME280;6763;48.524;9.044;2023-02-04T03:30:51;99136.09;;;11.94;59.32
13387;BME280;6763;48.524;9.044;2023-02-04T03:33:25;99143.91;;;11.95;59.00
13387;BME280;6763;48.524;9.044;2023-02-04T03:35:53;99140.44;;;11.95;58.90
13387;BME280;6763;48.524;9.044;2023-02-04T03:38:18;99140.44;;;11.95;59.28
13387;BME280;6763;48.524;9.044;2023-02-04T03:40:44;99150.81;;;11.95;59.21
13387;BME280;6763;48.524;9.044;2023-02-04T03:43:09;99155.16;;;11.96;59.01
13387;BME280;6763;48.524;9.044;2023-02-04T03:45:35;99153.38;;;11.96;59.15
13387;BME280;6763;48.524;9.044;2023-02-04T03:48:00;99151.69;;;11.95;59.34
13387;BME280;6763;48.524;9.044;2023-02-04T03:50:26;99156.88;;;11.95;59.25
13387;BME280;6763;48.524;9.044;2023-02-04T03:52:51;99158.59;;;11.95;58.84
13387;BME280;6763;48.524;9.044;2023-02-04T03:55:18;99161.19;;;11.93;58.96
13387;BME280;6763;48.524;9.044;2023-02-04T03:57:43;99161.19;;;11.92;58.86
13387;BME280;6763;48.524;9.044;2023-02-04T04:00:09;99168.09;;;11.91;58.85
13387;BME280;6763;48.524;9.044;2023-02-04T04:02:35;99168.13;;;11.90;58.91
13387;BME280;6763;48.524;9.044;2023-02-04T04:05:00;99169.84;;;11.89;59.05
13387;BME280;6763;48.524;9.044;2023-02-04T04:07:25;99162.91;;;11.88;59.15
13387;BME280;6763;48.524;9.044;2023-02-04T04:09:51;99161.22;;;11.87;58.94
13387;BME280;6763;48.524;9.044;2023-02-04T04:12:16;99168.09;;;11.88;59.08
13387;BME280;6763;48.524;9.044;2023-02-04T04:14:41;99175.03;;;11.88;58.99
13387;BME280;6763;48.524;9.044;2023-02-04T04:17:07;99177.63;;;11.89;59.14
13387;BME280;6763;48.524;9.044;2023-02-04T04:19:32;99184.56;;;11.90;59.15
13387;BME280;6763;48.524;9.044;2023-02-04T04:21:57;99193.19;;;11.91;59.25
13387;BME280;6763;48.524;9.044;2023-02-04T04:24:23;99194.94;;;11.90;58.92
13387;BME280;6763;48.524;9.044;2023-02-04T04:26:48;99188.00;;;11.89;58.75
13387;BME280;6763;48.524;9.044;2023-02-04T04:29:13;99196.63;;;11.88;59.48
13387;BME280;6763;48.524;9.044;2023-02-04T04:31:39;99197.53;;;11.84;59.22
13387;BME280;6763;48.524;9.044;2023-02-04T04:34:04;99200.13;;;11.82;59.09
13387;BME280;6763;48.524;9.044;2023-02-04T04:36:29;99208.78;;;11.80;59.15
13387;BME280;6763;48.524;9.044;2023-02-04T04:38:55;99211.38;;;11.78;59.05
13387;BME280;6763;48.524;9.044;2023-02-04T04:41:20;99215.72;;;11.75;59.23
13387;BME280;6763;48.524;9.044;2023-02-04T04:43:45;99219.16;;;11.69;59.62
13387;BME280;6763;48.524;9.044;2023-02-04T04:46:11;99214.81;;;11.64;59.70
13387;BME280;6763;48.524;9.044;2023-02-04T04:48:36;99219.97;;;11.61;59.53
13387;BME280;6763;48.524;9.044;2023-02-04T04:51:01;99226.03;;;11.58;59.85
13387;BME280;6763;48.524;9.044;2023-02-04T04:53:27;99214.78;;;11.55;59.55
13387;BME280;6763;48.524;9.044;2023-02-04T04:55:53;99212.19;;;11.50;59.41
13387;BME280;6763;48.524;9.044;2023-02-04T04:58:18;99215.66;;;11.46;59.47
13387;BME280;6763;48.524;9.044;2023-02-04T05:00:43;99218.25;;;11.40;59.66
13387;BME280;6763;48.524;9.044;2023-02-04T05:03:09;99220.81;;;11.37;59.47
13387;BME280;6763;48.524;9.044;2023-02-04T05:05:34;99226.03;;;11.36;59.79
13387;BME280;6763;48.524;9.044;2023-02-04T05:08:04;99226.00;;;11.34;59.71
13387;BME280;6763;48.524;9.044;2023-02-04T05:10:29;99212.19;;;11.31;59.05
13387;BME280;6763;48.524;9.044;2023-02-04T05:12:54;99227.75;;;11.28;59.63
13387;BME280;6763;48.524;9.044;2023-02-04T05:15:20;99212.19;;;11.25;59.65
13387;BME280;6763;48.524;9.044;2023-02-04T05:17:45;99211.28;;;11.21;59.75
13387;BME280;6763;48.524;9.044;2023-02-04T05:20:11;99215.63;;;11.19;59.71
13387;BME280;6763;48.524;9.044;2023-02-04T05:22:36;99212.16;;;11.17;59.27
13387;BME280;6763;48.524;9.044;2023-02-04T05:25:02;99217.31;;;11.15;59.87
13387;BME280;6763;48.524;9.044;2023-02-04T05:27:27;99216.50;;;11.15;59.89
13387;BME280;6763;48.524;9.044;2023-02-04T05:29:52;99219.94;;;11.14;59.40
13387;BME280;6763;48.524;9.044;2023-02-04T05:32:18;99220.81;;;11.14;59.71
13387;BME280;6763;48.524;9.044;2023-02-04T05:34:43;99224.25;;;11.13;59.68
13387;BME280;6763;48.524;9.044;2023-02-04T05:37:08;99222.53;;;11.14;60.22
13387;BME280;6763;48.524;9.044;2023-02-04T05:39:34;99216.47;;;11.13;59.55
13387;BME280;6763;48.524;9.044;2023-02-04T05:41:59;99227.69;;;11.15;59.26
13387;BME280;6763;48.524;9.044;2023-02-04T05:44:24;99227.69;;;11.14;59.33
13387;BME280;6763;48.524;9.044;2023-02-04T05:46:50;99244.13;;;11.14;59.23
13387;BME280;6763;48.524;9.044;2023-02-04T05:49:15;99243.25;;;11.14;59.58
13387;BME280;6763;48.524;9.044;2023-02-04T05:51:40;99243.25;;;11.14;59.53
13387;BME280;6763;48.524;9.044;2023-02-04T05:54:06;99249.31;;;11.14;59.43
13387;BME280;6763;48.524;9.044;2023-02-04T05:56:31;99249.28;;;11.16;59.27
13387;BME280;6763;48.524;9.044;2023-02-04T05:58:56;99257.09;;;11.17;59.26
13387;BME280;6763;48.524;9.044;2023-02-04T06:01:22;99251.91;;;11.17;59.14
13387;BME280;6763;48.524;9.044;2023-02-04T06:03:47;99244.97;;;11.16;59.14
13387;BME280;6763;48.524;9.044;2023-02-04T06:06:12;99250.16;;;11.16;59.28
13387;BME280;6763;48.524;9.044;2023-02-04T06:08:38;99250.16;;;11.16;59.08
13387;BME280;6763;48.524;9.044;2023-02-04T06:11:03;99251.91;;;11.14;59.21
13387;BME280;6763;48.524;9.044;2023-02-04T06:13:29;99258.78;;;11.11;59.60
13387;BME280;6763;48.524;9.044;2023-02-04T06:15:54;99260.50;;;11.10;59.33
13387;BME280;6763;48.524;9.044;2023-02-04T06:18:19;99267.44;;;11.10;59.13
13387;BME280;6763;48.524;9.044;2023-02-04T06:20:44;99270.00;;;11.08;59.48
13387;BME280;6763;48.524;9.044;2023-02-04T06:23:10;99262.25;;;11.07;59.38
13387;BME280;6763;48.524;9.044;2023-02-04T06:25:36;99270.88;;;11.06;58.95
13387;BME280;6763;48.524;9.044;2023-02-04T06:28:02;99280.34;;;11.05;59.14
13387;BME280;6763;48.524;9.044;2023-02-04T06:30:27;99290.72;;;11.04;59.38
13387;BME280;6763;48.524;9.044;2023-02-04T06:32:52;99292.44;;;11.03;59.19
13387;BME280;6763;48.524;9.044;2023-02-04T06:35:18;99289.00;;;11.03;59.09
13387;BME280;6763;48.524;9.044;2023-02-04T06:37:43;99289.00;;;11.01;59.21
13387;BME280;6763;48.524;9.044;2023-02-04T06:40:09;99288.13;;;11.01;59.36
13387;BME280;6763;48.524;9.044;2023-02-04T06:42:35;99294.16;;;11.00;59.29
13387;BME280;6763;48.524;9.044;2023-02-04T06:45:00;99298.50;;;10.99;59.44
13387;BME280;6763;48.524;9.044;2023-02-04T06:47:26;99300.22;;;11.00;59.04
13387;BME280;6763;48.524;9.044;2023-02-04T06:49:51;99303.66;;;11.02;59.58
13387;BME280;6763;48.524;9.044;2023-02-04T06:52:16;99300.25;;;11.05;59.35
13387;BME280;6763;48.524;9.044;2023-02-04T06:54:42;99301.97;;;11.06;59.29
13387;BME280;6763;48.524;9.044;2023-02-04T06:57:07;99314.94;;;11.07;59.36
13387;BME280;6763;48.524;9.044;2023-02-04T06:59:37;99310.59;;;11.08;58.90
13387;BME280;6763;48.524;9.044;2023-02-04T07:02:04;99317.50;;;11.06;59.23
13387;BME280;6763;48.524;9.044;2023-02-04T07:04:30;99320.94;;;11.03;59.11
13387;BME280;6763;48.524;9.044;2023-02-04T07:06:55;99326.13;;;11.02;59.05
13387;BME280;6763;48.524;9.044;2023-02-04T07:09:20;99330.44;;;11.01;59.12
13387;BME280;6763;48.524;9.044;2023-02-04T07:11:46;99332.16;;;11.01;58.99
13387;BME280;6763;48.524;9.044;2023-02-04T07:14:11;99339.06;;;11.00;59.25
13387;BME280;6763;48.524;9.044;2023-02-04T07:16:37;99336.50;;;10.99;58.78
13387;BME280;6763;48.524;9.044;2023-02-04T07:19:02;99343.38;;;10.98;58.84
13387;BME280;6763;48.524;9.044;2023-02-04T07:21:28;99341.66;;;11.00;59.53
13387;BME280;6763;48.524;9.044;2023-02-04T07:23:53;99348.59;;;11.04;59.31
13387;BME280;6763;48.524;9.044;2023-02-04T07:26:18;99346.88;;;11.08;59.09
13387;BME280;6763;48.524;9.044;2023-02-04T07:28:44;99351.19;;;11.10;58.76
13387;BME280;6763;48.524;9.044;2023-02-04T07:31:09;99349.47;;;11.11;58.95
13387;BME280;6763;48.524;9.044;2023-02-04T07:33:35;99369.38;;;11.15;58.85
13387;BME280;6763;48.524;9.044;2023-02-04T07:36:01;99354.69;;;11.15;58.98
13387;BME280;6763;48.524;9.044;2023-02-04T07:38:26;99360.75;;;11.14;58.98
13387;BME280;6763;48.524;9.044;2023-02-04T07:40:52;99355.53;;;11.13;58.78
13387;BME280;6763;48.524;9.044;2023-02-04T07:43:17;99358.97;;;11.10;58.89
13387;BME280;6763;48.524;9.044;2023-02-04T07:45:43;99365.00;;;11.08;59.05
13387;BME280;6763;48.524;9.044;2023-02-04T07:48:08;99365.88;;;11.08;58.90
13387;BME280;6763;48.524;9.044;2023-02-04T07:50:34;99375.41;;;11.11;59.03
13387;BME280;6763;48.524;9.044;2023-02-04T07:53:00;99371.97;;;11.12;59.00
13387;BME280;6763;48.524;9.044;2023-02-04T07:55:25;99369.34;;;11.13;58.78
13387;BME280;6763;48.524;9.044;2023-02-04T07:57:50;99372.81;;;11.11;58.56
13387;BME280;6763;48.524;9.044;2023-02-04T08:00:16;99378.00;;;11.09;59.08
13387;BME280;6763;48.524;9.044;2023-02-04T08:02:41;99384.91;;;11.07;58.76
13387;BME280;6763;48.524;9.044;2023-02-04T08:05:08;99388.34;;;11.06;58.78
13387;BME280;6763;48.524;9.044;2023-02-04T08:07:33;99390.09;;;11.07;59.10
13387;BME280;6763;48.524;9.044;2023-02-04T08:09:59;99382.31;;;11.12;59.17
13387;BME280;6763;48.524;9.044;2023-02-04T08:12:24;99392.69;;;11.18;59.33
13387;BME280;6763;48.524;9.044;2023-02-04T08:14:49;99393.59;;;11.26;58.97
13387;BME280;6763;48.524;9.044;2023-02-04T08:17:15;99399.69;;;11.33;59.04
13387;BME280;6763;48.524;9.044;2023-02-04T08:19:40;99388.47;;;11.40;59.33
13387;BME280;6763;48.524;9.044;2023-02-04T08:22:05;99389.38;;;11.46;58.56
13387;BME280;6763;48.524;9.044;2023-02-04T08:24:31;99379.91;;;11.51;58.54
13387;BME280;6763;48.524;9.044;2023-02-04T08:26:56;99397.19;;;11.54;57.81
13387;BME280;6763;48.524;9.044;2023-02-04T08:29:23;99398.94;;;11.61;58.43
13387;BME280;6763;48.524;9.044;2023-02-04T08:31:50;99402.47;;;11.72;58.38
13387;BME280;6763;48.524;9.044;2023-02-04T08:34:15;99403.38;;;11.88;58.05
13387;BME280;6763;48.524;9.044;2023-02-04T08:36:41;99411.19;;;12.06;58.21
13387;BME280;6763;48.524;9.044;2023-02-04T08:39:06;99412.06;;;12.20;57.94
13387;BME280;6763;48.524;9.044;2023-02-04T08:41:31;99419.00;;;12.28;57.28
13387;BME280;6763;48.524;9.044;2023-02-04T08:43:57;99412.06;;;12.39;56.99
13387;BME280;6763;48.524;9.044;2023-02-04T08:46:23;99419.88;;;12.47;57.11
13387;BME280;6763;48.524;9.044;2023-02-04T08:48:48;99419.84;;;12.52;56.87
13387;BME280;6763;48.524;9.044;2023-02-04T08:51:13;99418.13;;;12.51;54.71
13387;BME280;6763;48.524;9.044;2023-02-04T08:53:39;99414.66;;;12.49;54.94
13387;BME280;6763;48.524;9.044;2023-02-04T08:56:05;99425.94;;;12.55;54.90
13387;BME280;6763;48.524;9.044;2023-02-04T08:58:31;99427.66;;;12.55;53.65
13387;BME280;6763;48.524;9.044;2023-02-04T09:00:56;99432.84;;;12.52;52.80
13387;BME280;6763;48.524;9.044;2023-02-04T09:03:21;99427.66;;;12.44;52.19
13387;BME280;6763;48.524;9.044;2023-02-04T09:05:47;99432.84;;;12.47;51.82
13387;BME280;6763;48.524;9.044;2023-02-04T09:08:12;99433.69;;;12.51;52.46
13387;BME280;6763;48.524;9.044;2023-02-04T09:10:40;99435.44;;;12.65;52.46
13387;BME280;6763;48.524;9.044;2023-02-04T09:13:05;99441.47;;;12.85;51.43
13387;BME280;6763;48.524;9.044;2023-02-04T09:15:33;99453.59;;;12.91;51.00
13387;BME280;6763;48.524;9.044;2023-02-04T09:17:58;99448.41;;;12.94;50.39
13387;BME280;6763;48.524;9.044;2023-02-04T09:20:35;99445.81;;;12.91;50.27
13387;BME280;6763;48.524;9.044;2023-02-04T09:23:01;99451.00;;;12.95;51.33
13387;BME280;6763;48.524;9.044;2023-02-04T09:25:27;99445.78;;;12.98;51.17
13387;BME280;6763;48.524;9.044;2023-02-04T09:27:52;99447.53;;;13.04;50.57
13387;BME280;6763;48.524;9.044;2023-02-04T09:30:17;99442.34;;;13.09;50.51
13387;BME280;6763;48.524;9.044;2023-02-04T09:32:43;99453.56;;;13.15;50.45
13387;BME280;6763;48.524;9.044;2023-02-04T09:35:08;99463.97;;;13.21;49.81
13387;BME280;6763;48.524;9.044;2023-02-04T09:37:33;99458.78;;;13.27;50.65
13387;BME280;6763;48.524;9.044;2023-02-04T09:39:59;99459.63;;;13.32;49.63
13387;BME280;6763;48.524;9.044;2023-02-04T09:42:25;99469.13;;;13.33;49.01
13387;BME280;6763;48.524;9.044;2023-02-04T09:44:50;99470.84;;;13.39;49.68
13387;BME280;6763;48.524;9.044;2023-02-04T09:47:20;99467.41;;;13.43;48.55
13387;BME280;6763;48.524;9.044;2023-02-04T09:49:46;99472.59;;;13.41;48.38
13387;BME280;6763;48.524;9.044;2023-02-04T09:52:13;99465.66;;;13.42;48.38
13387;BME280;6763;48.524;9.044;2023-02-04T09:54:40;99478.63;;;13.54;48.82
13387;BME280;6763;48.524;9.044;2023-02-04T09:57:14;99482.00;;;13.76;48.64
13387;BME280;6763;48.524;9.044;2023-02-04T09:59:41;99484.50;;;13.97;46.72
13387;BME280;6763;48.524;9.044;2023-02-04T10:04:41;99488.75;;;14.14;45.84
13387;BME280;6763;48.524;9.044;2023-02-04T10:07:11;99492.19;;;14.24;44.90
13387;BME280;6763;48.524;9.044;2023-02-04T10:09:38;99484.34;;;14.32;45.25
13387;BME280;6763;48.524;9.044;2023-02-04T10:12:05;99483.41;;;14.42;44.96
13387;BME280;6763;48.524;9.044;2023-02-04T10:14:31;99485.97;;;14.49;44.72
13387;BME280;6763;48.524;9.044;2023-02-04T10:16:57;99485.97;;;14.46;43.07
13387;BME280;6763;48.524;9.044;2023-02-04T10:19:26;99473.91;;;14.33;43.20
13387;BME280;6763;48.524;9.044;2023-02-04T10:21:52;99480.88;;;14.25;43.65
13387;BME280;6763;48.524;9.044;2023-02-04T10:24:20;99480.00;;;14.32;43.49
13387;BME280;6763;48.524;9.044;2023-02-04T10:26:47;99474.72;;;14.44;43.29
13387;BME280;6763;48.524;9.044;2023-02-04T10:29:18;99472.78;;;14.70;43.55
13387;BME280;6763;48.524;9.044;2023-02-04T10:31:46;99482.06;;;14.97;43.38
13387;BME280;6763;48.524;9.044;2023-02-04T10:34:40;99482.69;;;15.25;43.17
13387;BME280;6763;48.524;9.044;2023-02-04T10:37:18;99474.50;;;15.60;42.20
13387;BME280;6763;48.524;9.044;2023-02-04T10:39:43;99470.53;;;16.00;41.75
13387;BME280;6763;48.524;9.044;2023-02-04T10:42:20;99461.91;;;16.53;40.33
13387;BME280;6763;48.524;9.044;2023-02-04T10:44:46;99459.09;;;17.15;38.72
13387;BME280;6763;48.524;9.044;2023-02-04T10:47:21;99451.75;;;18.20;37.31
13387;BME280;6763;48.524;9.044;2023-02-04T10:50:06;99451.28;;;19.44;34.85
13387;BME280;6763;48.524;9.044;2023-02-04T10:52:37;99452.22;;;20.58;32.86
13387;BME280;6763;48.524;9.044;2023-02-04T10:55:05;99445.03;;;21.40;30.28
13387;BME280;6763;48.524;9.044;2023-02-04T10:57:34;99446.06;;;21.36;27.87
13387;BME280;6763;48.524;9.044;2023-02-04T11:00:04;99451.13;;;21.42;28.56
13387;BME280;6763;48.524;9.044;2023-02-04T11:02:40;99441.94;;;21.03;28.03
13387;BME280;6763;48.524;9.044;2023-02-04T11:05:18;99451.78;;;20.44;28.47
13387;BME280;6763;48.524;9.044;2023-02-04T11:07:46;99449.13;;;20.16;29.85
13387;BME280;6763;48.524;9.044;2023-02-04T11:10:15;99452.41;;;19.95;30.05
13387;BME280;6763;48.524;9.044;2023-02-04T11:15:41;99463.72;;;18.70;30.20
13387;BME280;6763;48.524;9.044;2023-02-04T11:18:25;99462.56;;;18.05;31.66
13387;BME280;6763;48.524;9.044;2023-02-04T11:20:54;99473.72;;;17.73;31.75
13387;BME280;6763;48.524;9.044;2023-02-04T11:26:02;99467.81;;;16.65;31.80
13387;BME280;6763;48.524;9.044;2023-02-04T11:28:48;99471.94;;;16.24;33.33
13387;BME280;6763;48.524;9.044;2023-02-04T11:33:41;99476.22;;;15.64;34.06
13387;BME280;6763;48.524;9.044;2023-02-04T11:36:11;99467.84;;;15.28;34.79
13387;BME280;6763;48.524;9.044;2023-02-04T11:38:37;99466.41;;;15.02;35.49
13387;BME280;6763;48.524;9.044;2023-02-04T11:41:04;99470.00;;;14.87;36.01
13387;BME280;6763;48.524;9.044;2023-02-04T11:43:34;99461.44;;;14.71;36.18
13387;BME280;6763;48.524;9.044;2023-02-04T11:46:16;99459.84;;;14.60;36.31
13387;BME280;6763;48.524;9.044;2023-02-04T11:48:42;99464.13;;;14.64;36.41
13387;BME280;6763;48.524;9.044;2023-02-04T11:51:31;99470.09;;;14.81;36.03
13387;BME280;6763;48.524;9.044;2023-02-04T11:53:57;99464.69;;;14.98;35.71
13387;BME280;6763;48.524;9.044;2023-02-04T11:56:23;99467.16;;;15.13;35.37
13387;BME280;6763;48.524;9.044;2023-02-04T11:58:55;99469.75;;;15.17;35.05
13387;BME280;6763;48.524;9.044;2023-02-04T12:01:29;99472.38;;;15.14;35.09
13387;BME280;6763;48.524;9.044;2023-02-04T12:03:57;99462.84;;;15.07;35.23
13387;BME280;6763;48.524;9.044;2023-02-04T12:06:26;99467.25;;;15.02;35.17
13387;BME280;6763;48.524;9.044;2023-02-04T12:08:51;99465.28;;;15.25;35.16
13387;BME280;6763;48.524;9.044;2023-02-04T12:11:27;99465.78;;;15.62;34.56
13387;BME280;6763;48.524;9.044;2023-02-04T12:13:58;99462.22;;;15.69;34.26
13387;BME280;6763;48.524;9.044;2023-02-04T12:16:24;99462.16;;;15.74;34.56
13387;BME280;6763;48.524;9.044;2023-02-04T12:18:49;99479.84;;;16.16;34.23
13387;BME280;6763;48.524;9.044;2023-02-04T12:21:18;99471.34;;;16.63;33.51
13387;BME280;6763;48.524;9.044;2023-02-04T12:23:43;99467.78;;;17.17;32.54
13387;BME280;6763;48.524;9.044;2023-02-04T12:26:09;99478.81;;;17.80;31.69
13387;BME280;6763;48.524;9.044;2023-02-04T12:28:35;99472.53;;;17.89;30.71
13387;BME280;6763;48.524;9.044;2023-02-04T12:31:00;99468.81;;;17.58;30.96
13387;BME280;6763;48.524;9.044;2023-02-04T12:33:26;99471.13;;;17.25;31.06
13387;BME280;6763;48.524;9.044;2023-02-04T12:35:51;99472.09;;;17.21;31.37
13387;BME280;6763;48.524;9.044;2023-02-04T12:38:17;99465.31;;;17.10;31.47
13387;BME280;6763;48.524;9.044;2023-02-04T12:40:42;99475.53;;;16.74;31.86
13387;BME280;6763;48.524;9.044;2023-02-04T12:43:08;99477.81;;;16.38;32.00
13387;BME280;6763;48.524;9.044;2023-02-04T12:45:34;99472.84;;;16.21;32.86
13387;BME280;6763;48.524;9.044;2023-02-04T12:47:59;99479.84;;;16.16;32.47
13387;BME280;6763;48.524;9.044;2023-02-04T12:50:25;99479.06;;;16.12;32.54
13387;BME280;6763;48.524;9.044;2023-02-04T12:52:52;99488.59;;;16.13;32.55
13387;BME280;6763;48.524;9.044;2023-02-04T12:55:20;99487.75;;;16.13;32.58
13387;BME280;6763;48.524;9.044;2023-02-04T12:57:46;99488.72;;;16.06;32.74
13387;BME280;6763;48.524;9.044;2023-02-04T13:00:13;99486.06;;;16.09;32.80
13387;BME280;6763;48.524;9.044;2023-02-04T13:02:39;99480.75;;;16.13;32.94
13387;BME280;6763;48.524;9.044;2023-02-04T13:05:04;99478.28;;;16.04;32.79
13387;BME280;6763;48.524;9.044;2023-02-04T13:07:30;99485.50;;;15.87;33.29
13387;BME280;6763;48.524;9.044;2023-02-04T13:09:55;99485.75;;;15.65;33.56
13387;BME280;6763;48.524;9.044;2023-02-04T13:12:21;99492.16;;;15.33;34.34
13387;BME280;6763;48.524;9.044;2023-02-04T13:14:46;99499.53;;;14.94;35.02
13387;BME280;6763;48.524;9.044;2023-02-04T13:17:12;99496.28;;;14.63;35.54